createdAt,value
2022-09-12T00:00:32.675Z,61.42
2022-09-12T00:01:32.647Z,61.83
2022-09-12T00:02:32.502Z,65.88
2022-09-12T00:03:32.443Z,58.65
2022-09-12T00:04:32.466Z,57.49
2022-09-12T00:05:33.147Z,61.72
2022-09-12T00:06:32.478Z,57.64
2022-09-12T00:07:32.568Z,62.73
2022-09-12T00:08:32.496Z,59.31
2022-09-12T00:09:32.466Z,67.51
2022-09-12T00:10:32.323Z,66.97
2022-09-12T00:11:32.427Z,64.01
2022-09-12T00:12:32.327Z,67.67
2022-09-12T00:13:32.288Z,59.81
2022-09-12T00:14:32.242Z,63.78
2022-09-12T00:15:32.307Z,65.95
2022-09-12T00:16:33.257Z,63.93
2022-09-12T00:17:32.171Z,59.13
2022-09-12T00:18:33.240Z,67.05
2022-09-12T00:19:32.156Z,65.20
2022-09-12T00:20:32.248Z,61.03
2022-09-12T00:21:32.184Z,60.26
2022-09-12T00:22:32.263Z,64.68
2022-09-12T00:23:32.229Z,67.82
2022-09-12T00:24:32.776Z,61.43
2022-09-12T00:25:32.164Z,58.47
2022-09-12T00:26:32.258Z,55.71
2022-09-12T00:27:32.136Z,59.84
2022-09-12T00:28:32.028Z,67.00
2022-09-12T00:29:32.697Z,69.23
2022-09-12T00:30:32.127Z,54.04
2022-09-12T00:31:32.133Z,62.95
2022-09-12T00:32:32.054Z,65.65
2022-09-12T00:33:32.012Z,60.00
2022-09-12T00:34:32.094Z,56.34
2022-09-12T00:35:31.992Z,48.80
2022-09-12T00:36:32.036Z,47.16
2022-09-12T00:37:31.988Z,63.72
2022-09-12T00:38:31.964Z,56.87
2022-09-12T00:39:31.969Z,63.01
2022-09-12T00:40:32.049Z,65.81
2022-09-12T00:41:31.997Z,56.69
2022-09-12T00:42:31.873Z,64.90
2022-09-12T00:43:31.901Z,63.98
2022-09-12T00:44:32.031Z,65.64
2022-09-12T00:45:31.972Z,57.99
2022-09-12T00:46:31.892Z,60.57
2022-09-12T00:47:32.100Z,50.39
2022-09-12T00:48:31.874Z,56.90
2022-09-12T00:49:32.105Z,55.17
2022-09-12T00:50:31.809Z,48.45
2022-09-12T00:51:31.793Z,48.63
2022-09-12T00:52:31.753Z,63.59
2022-09-12T00:53:31.828Z,61.40
2022-09-12T00:54:31.806Z,59.62
2022-09-12T00:55:31.825Z,54.61
2022-09-12T00:56:31.845Z,56.27
2022-09-12T00:57:31.769Z,63.07
2022-09-12T00:58:31.810Z,56.08
2022-09-12T00:59:31.733Z,50.95
2022-09-12T01:00:31.721Z,60.02
2022-09-12T01:01:32.775Z,56.00
2022-09-12T01:02:32.904Z,63.02
2022-09-12T01:03:31.729Z,66.13
2022-09-12T01:04:31.714Z,62.30
2022-09-12T01:05:31.794Z,61.86
2022-09-12T01:06:31.733Z,61.86
2022-09-12T01:07:35.791Z,47.23
2022-09-12T01:08:33.733Z,56.44
2022-09-12T01:09:31.653Z,61.12
2022-09-12T01:10:31.505Z,49.71
2022-09-12T01:11:31.509Z,69.38
2022-09-12T01:12:31.482Z,56.96
2022-09-12T01:13:31.489Z,64.13
2022-09-12T01:14:31.490Z,49.32
2022-09-12T01:15:31.507Z,57.22
2022-09-12T01:16:32.457Z,59.86
2022-09-12T01:17:33.863Z,52.49
2022-09-12T01:18:32.631Z,66.76
2022-09-12T01:19:32.499Z,66.20
2022-09-12T01:20:33.899Z,68.23
2022-09-12T01:21:32.662Z,61.63
2022-09-12T01:22:32.786Z,62.34
2022-09-12T01:23:31.478Z,55.41
2022-09-12T01:24:32.744Z,51.07
2022-09-12T01:25:32.539Z,60.04
2022-09-12T01:26:31.555Z,69.92
2022-09-12T01:27:33.683Z,68.94
2022-09-12T01:28:32.431Z,51.68
2022-09-12T01:29:34.123Z,50.41
2022-09-12T01:30:32.498Z,63.89
2022-09-12T01:31:32.561Z,49.84
2022-09-12T01:32:31.470Z,61.01
2022-09-12T01:33:33.455Z,67.58
2022-09-12T01:34:32.551Z,57.21
2022-09-12T01:35:31.440Z,67.60
2022-09-12T01:36:31.251Z,59.92
2022-09-12T01:37:31.232Z,59.48
2022-09-12T01:38:31.211Z,56.98
2022-09-12T01:39:31.207Z,57.08
2022-09-12T01:40:31.216Z,62.89
2022-09-12T01:41:31.200Z,57.44
2022-09-12T01:42:31.172Z,60.92
2022-09-12T01:43:31.156Z,68.03
2022-09-12T01:44:31.273Z,63.62
2022-09-12T01:45:31.192Z,62.65
2022-09-12T01:46:31.190Z,64.86
2022-09-12T01:47:31.120Z,65.54
2022-09-12T01:48:31.120Z,55.67
2022-09-12T01:49:32.116Z,51.85
2022-09-12T01:51:03.704Z,60.92
2022-09-12T01:51:31.216Z,63.60
2022-09-12T01:52:31.221Z,61.03
2022-09-12T01:53:31.170Z,63.41
2022-09-12T01:54:31.161Z,61.98
2022-09-12T01:55:31.127Z,55.91
2022-09-12T01:56:31.129Z,65.12
2022-09-12T01:57:31.100Z,63.29
2022-09-12T01:58:31.065Z,52.70
2022-09-12T01:59:31.040Z,65.04
2022-09-12T02:00:31.050Z,60.97
2022-09-12T02:01:31.096Z,67.28
2022-09-12T02:02:31.013Z,66.54
2022-09-12T02:03:31.554Z,61.26
2022-09-12T02:04:34.158Z,52.78
2022-09-12T02:05:31.990Z,55.03
2022-09-12T02:06:31.020Z,67.43
2022-09-12T02:07:31.049Z,58.76
2022-09-12T02:08:30.940Z,70.31
2022-09-12T02:09:30.997Z,65.14
2022-09-12T02:10:32.696Z,56.29
2022-09-12T02:11:31.917Z,64.97
2022-09-12T02:12:30.921Z,68.05
2022-09-12T02:13:30.901Z,69.59
2022-09-12T02:14:30.845Z,67.12
2022-09-12T02:15:30.870Z,69.08
2022-09-12T02:16:30.973Z,68.04
2022-09-12T02:17:30.870Z,68.51
2022-09-12T02:18:30.849Z,56.63
2022-09-12T02:19:30.878Z,64.97
2022-09-12T02:20:47.415Z,61.78
2022-09-12T02:21:32.847Z,70.46
2022-09-12T02:22:31.650Z,64.97
2022-09-12T02:23:31.875Z,53.44
2022-09-12T02:24:30.748Z,67.07
2022-09-12T02:25:30.754Z,61.83
2022-09-12T02:26:30.765Z,63.96
2022-09-12T02:27:31.572Z,66.78
2022-09-12T02:28:30.757Z,69.99
2022-09-12T02:29:30.771Z,67.11
2022-09-12T02:30:30.767Z,65.38
2022-09-12T02:31:30.699Z,58.94
2022-09-12T02:32:30.711Z,65.86
2022-09-12T02:33:30.725Z,61.39
2022-09-12T02:34:30.690Z,66.91
2022-09-12T02:35:30.683Z,64.99
2022-09-12T02:36:30.654Z,67.64
2022-09-12T02:37:30.674Z,65.56
2022-09-12T02:38:30.667Z,66.61
2022-09-12T02:39:30.654Z,66.16
2022-09-12T02:40:30.622Z,62.06
2022-09-12T02:41:30.648Z,63.36
2022-09-12T02:42:30.603Z,66.21
2022-09-12T02:43:30.662Z,68.08
2022-09-12T02:44:30.642Z,59.62
2022-09-12T02:45:30.651Z,63.63
2022-09-12T02:46:30.564Z,69.53
2022-09-12T02:47:30.595Z,62.94
2022-09-12T02:48:30.518Z,69.75
2022-09-12T02:49:30.565Z,70.61
2022-09-12T02:50:30.535Z,66.05
2022-09-12T02:51:30.536Z,67.94
2022-09-12T02:52:30.575Z,65.85
2022-09-12T02:53:30.572Z,63.92
2022-09-12T02:54:30.544Z,69.42
2022-09-12T02:55:30.506Z,63.21
2022-09-12T02:56:30.475Z,66.98
2022-09-12T02:57:30.480Z,69.90
2022-09-12T02:58:30.479Z,64.66
2022-09-12T02:59:30.435Z,63.91
2022-09-12T03:00:30.435Z,61.48
2022-09-12T03:01:30.546Z,68.39
2022-09-12T03:02:30.475Z,71.12
2022-09-12T03:03:30.384Z,68.62
2022-09-12T03:04:30.501Z,67.65
2022-09-12T03:05:30.367Z,72.71
2022-09-12T03:06:30.352Z,69.11
2022-09-12T03:07:30.364Z,72.95
2022-09-12T03:08:30.332Z,69.66
2022-09-12T03:09:30.340Z,71.21
2022-09-12T03:10:30.320Z,69.56
2022-09-12T03:11:30.349Z,68.66
2022-09-12T03:12:30.316Z,64.04
2022-09-12T03:13:30.332Z,68.16
2022-09-12T03:14:30.276Z,68.35
2022-09-12T03:15:30.232Z,70.03
2022-09-12T03:16:30.488Z,70.84
2022-09-12T03:17:30.287Z,73.78
2022-09-12T03:18:30.232Z,72.28
2022-09-12T03:19:30.266Z,72.56
2022-09-12T03:20:30.232Z,72.01
2022-09-12T03:21:30.260Z,72.60
2022-09-12T03:22:30.250Z,70.87
2022-09-12T03:23:30.192Z,71.87
2022-09-12T03:24:30.265Z,70.52
2022-09-12T03:25:30.160Z,72.97
2022-09-12T03:26:30.177Z,72.90
2022-09-12T03:27:30.214Z,73.08
2022-09-12T03:28:30.226Z,74.50
2022-09-12T03:29:30.089Z,70.46
2022-09-12T03:30:30.180Z,73.97
2022-09-12T03:31:30.113Z,74.45
2022-09-12T03:32:30.757Z,72.08
2022-09-12T03:33:30.129Z,72.24
2022-09-12T03:34:30.024Z,73.56
2022-09-12T03:35:30.053Z,73.94
2022-09-12T03:36:30.113Z,73.46
2022-09-12T03:37:30.078Z,72.44
2022-09-12T03:38:30.057Z,70.92
2022-09-12T03:39:30.065Z,75.61
2022-09-12T03:40:30.026Z,74.78
2022-09-12T03:41:29.997Z,73.61
2022-09-12T03:42:30.049Z,73.45
2022-09-12T03:43:30.011Z,74.64
2022-09-12T03:44:30.013Z,72.13
2022-09-12T03:45:30.012Z,73.90
2022-09-12T03:46:29.962Z,75.26
2022-09-12T03:47:29.954Z,71.85
2022-09-12T03:48:29.974Z,73.74
2022-09-12T03:49:29.986Z,73.71
2022-09-12T03:50:30.022Z,76.13
2022-09-12T03:51:29.879Z,74.29
2022-09-12T03:52:29.910Z,74.10
2022-09-12T03:53:30.143Z,73.52
2022-09-12T03:54:29.877Z,71.86
2022-09-12T03:55:29.887Z,76.40
2022-09-12T03:56:29.854Z,73.06
2022-09-12T03:57:29.816Z,72.46
2022-09-12T03:58:29.854Z,72.29
2022-09-12T03:59:29.886Z,74.28
2022-09-12T04:00:29.802Z,72.66
2022-09-12T04:01:29.854Z,73.64
2022-09-12T04:02:29.845Z,71.28
2022-09-12T04:03:29.842Z,73.71
2022-09-12T04:04:29.791Z,74.96
2022-09-12T04:05:29.778Z,73.53
2022-09-12T04:06:29.793Z,75.26
2022-09-12T04:07:29.711Z,72.42
2022-09-12T04:08:29.731Z,72.91
2022-09-12T04:09:29.742Z,73.81
2022-09-12T04:10:29.703Z,73.94
2022-09-12T04:11:30.610Z,72.62
2022-09-12T04:12:29.708Z,74.49
2022-09-12T04:13:29.751Z,75.24
2022-09-12T04:14:29.651Z,73.58
2022-09-12T04:15:29.703Z,74.58
2022-09-12T04:16:29.741Z,74.28
2022-09-12T04:17:29.651Z,75.03
2022-09-12T04:18:29.614Z,75.01
2022-09-12T04:19:29.630Z,75.10
2022-09-12T04:20:29.638Z,74.73
2022-09-12T04:21:29.632Z,74.83
2022-09-12T04:22:29.612Z,76.32
2022-09-12T04:23:29.560Z,75.05
2022-09-12T04:24:29.575Z,73.00
2022-09-12T04:25:29.600Z,74.26
2022-09-12T04:26:29.545Z,76.40
2022-09-12T04:27:29.512Z,76.42
2022-09-12T04:28:29.604Z,74.22
2022-09-12T04:29:29.544Z,75.78
2022-09-12T04:30:29.574Z,77.67
2022-09-12T04:31:30.638Z,76.69
2022-09-12T04:32:29.520Z,75.40
2022-09-12T04:33:29.509Z,75.39
2022-09-12T04:34:29.517Z,75.99
2022-09-12T04:35:29.456Z,76.38
2022-09-12T04:36:29.452Z,77.70
2022-09-12T04:37:29.548Z,76.38
2022-09-12T04:38:29.456Z,75.93
2022-09-12T04:40:01.942Z,76.63
2022-09-12T04:40:29.493Z,78.49
2022-09-12T04:42:01.896Z,75.52
2022-09-12T04:42:29.540Z,79.32
2022-09-12T04:43:29.460Z,76.93
2022-09-12T04:44:29.400Z,76.91
2022-09-12T04:45:29.416Z,77.12
2022-09-12T04:46:29.355Z,77.83
2022-09-12T04:47:29.353Z,76.62
2022-09-12T04:48:29.354Z,75.89
2022-09-12T04:49:29.367Z,75.10
2022-09-12T04:50:29.362Z,75.40
2022-09-12T04:51:29.325Z,75.54
2022-09-12T04:52:29.295Z,77.29
2022-09-12T04:53:29.276Z,74.52
2022-09-12T04:54:29.295Z,76.61
2022-09-12T04:55:29.254Z,76.41
2022-09-12T04:56:29.273Z,74.38
2022-09-12T04:57:30.210Z,74.72
2022-09-12T04:58:29.255Z,74.12
2022-09-12T04:59:29.216Z,75.86
2022-09-12T05:00:29.232Z,76.42
2022-09-12T05:01:29.279Z,76.57
2022-09-12T05:02:30.989Z,74.48
2022-09-12T05:03:29.119Z,75.86
2022-09-12T05:04:29.147Z,77.55
2022-09-12T05:05:29.202Z,77.00
2022-09-12T05:06:29.170Z,75.75
2022-09-12T05:07:29.143Z,75.97
2022-09-12T05:08:29.131Z,76.27
2022-09-12T05:09:29.115Z,76.51
2022-09-12T05:10:29.119Z,75.58
2022-09-12T05:11:46.934Z,75.35
2022-09-12T05:12:30.036Z,76.70
2022-09-12T05:13:29.234Z,75.45
2022-09-12T05:14:29.031Z,76.39
2022-09-12T05:15:29.095Z,75.74
2022-09-12T05:16:29.007Z,75.96
2022-09-12T05:17:29.018Z,77.19
2022-09-12T05:18:29.031Z,77.69
2022-09-12T05:19:28.991Z,75.72
2022-09-12T05:20:29.003Z,76.41
2022-09-12T05:21:28.976Z,76.98
2022-09-12T05:22:28.939Z,76.81
2022-09-12T05:23:28.931Z,76.23
2022-09-12T05:24:28.991Z,75.42
2022-09-12T05:25:28.927Z,75.66
2022-09-12T05:26:28.897Z,77.25
2022-09-12T05:27:28.926Z,77.57
2022-09-12T05:28:28.905Z,76.64
2022-09-12T05:29:28.849Z,77.84
2022-09-12T05:30:28.871Z,77.41
2022-09-12T05:31:28.901Z,77.41
2022-09-12T05:32:28.842Z,74.87
2022-09-12T05:33:28.802Z,75.34
2022-09-12T05:34:28.945Z,76.93
2022-09-12T05:35:28.783Z,77.42
2022-09-12T05:36:28.793Z,76.99
2022-09-12T05:37:28.774Z,77.54
2022-09-12T05:38:28.831Z,77.07
2022-09-12T05:39:28.769Z,78.91
2022-09-12T05:40:28.778Z,77.39
2022-09-12T05:41:28.738Z,77.34
2022-09-12T05:42:28.721Z,75.08
2022-09-12T05:43:28.777Z,77.00
2022-09-12T05:44:28.723Z,77.25
2022-09-12T05:45:28.701Z,75.21
2022-09-12T05:46:28.698Z,77.84
2022-09-12T05:47:28.682Z,75.56
2022-09-12T05:48:28.795Z,76.89
2022-09-12T05:49:28.642Z,76.17
2022-09-12T05:50:28.680Z,78.08
2022-09-12T05:51:28.694Z,76.44
2022-09-12T05:52:28.630Z,76.50
2022-09-12T05:53:28.647Z,76.76
2022-09-12T05:54:31.614Z,77.29
2022-09-12T05:55:29.633Z,76.79
2022-09-12T05:56:28.578Z,75.83
2022-09-12T05:57:28.622Z,76.55
2022-09-12T05:58:28.566Z,77.52
2022-09-12T05:59:28.641Z,74.86
2022-09-12T06:00:32.910Z,77.14
2022-09-12T06:01:29.661Z,73.91
2022-09-12T06:02:28.526Z,74.39
2022-09-12T06:03:29.097Z,75.48
2022-09-12T06:04:28.526Z,74.91
2022-09-12T06:05:28.506Z,75.80
2022-09-12T06:06:28.502Z,76.33
2022-09-12T06:07:28.479Z,74.01
2022-09-12T06:08:28.507Z,76.85
2022-09-12T06:09:28.438Z,75.06
2022-09-12T06:10:28.476Z,75.04
2022-09-12T06:11:28.499Z,75.51
2022-09-12T06:12:28.479Z,75.39
2022-09-12T06:13:28.421Z,75.98
2022-09-12T06:14:28.996Z,76.22
2022-09-12T06:15:28.547Z,75.93
2022-09-12T06:16:28.398Z,74.62
2022-09-12T06:17:28.405Z,75.04
2022-09-12T06:18:28.352Z,74.58
2022-09-12T06:19:28.380Z,76.22
2022-09-12T06:20:28.386Z,76.73
2022-09-12T06:21:28.293Z,75.32
2022-09-12T06:22:28.434Z,76.69
2022-09-12T06:23:28.361Z,74.72
2022-09-12T06:24:28.290Z,76.40
2022-09-12T06:25:28.298Z,74.62
2022-09-12T06:26:28.290Z,74.94
2022-09-12T06:27:28.276Z,75.79
2022-09-12T06:28:28.302Z,76.51
2022-09-12T06:29:28.338Z,72.62
2022-09-12T06:30:28.339Z,75.72
2022-09-12T06:31:28.245Z,74.25
2022-09-12T06:32:28.302Z,73.73
2022-09-12T06:33:28.181Z,75.88
2022-09-12T06:34:28.237Z,74.50
2022-09-12T06:35:28.206Z,75.10
2022-09-12T06:36:28.157Z,75.96
2022-09-12T06:37:28.197Z,74.04
2022-09-12T06:38:28.134Z,72.43
2022-09-12T06:39:28.186Z,73.62
2022-09-12T06:40:28.130Z,73.06
2022-09-12T06:41:28.310Z,73.81
2022-09-12T06:42:28.121Z,74.27
2022-09-12T06:43:28.129Z,74.52
2022-09-12T06:44:28.194Z,71.85
2022-09-12T06:45:28.159Z,75.70
2022-09-12T06:46:28.185Z,72.48
2022-09-12T06:47:28.062Z,73.77
2022-09-12T06:48:28.105Z,75.16
2022-09-12T06:49:28.077Z,73.67
2022-09-12T06:50:28.049Z,73.96
2022-09-12T06:51:28.024Z,74.88
2022-09-12T06:52:28.062Z,75.32
2022-09-12T06:53:28.016Z,74.65
2022-09-12T06:54:28.026Z,72.79
2022-09-12T06:55:28.105Z,74.51
2022-09-12T06:56:27.956Z,72.37
2022-09-12T06:57:27.940Z,73.93
2022-09-12T06:58:27.972Z,75.02
2022-09-12T06:59:27.980Z,73.03
2022-09-12T07:00:27.979Z,72.52
2022-09-12T07:01:28.026Z,71.63
2022-09-12T07:02:27.936Z,69.56
2022-09-12T07:03:27.938Z,72.00
2022-09-12T07:04:27.942Z,72.82
2022-09-12T07:05:27.910Z,73.18
2022-09-12T07:06:27.934Z,74.02
2022-09-12T07:07:27.979Z,73.61
2022-09-12T07:08:27.933Z,74.19
2022-09-12T07:09:27.939Z,73.30
2022-09-12T07:10:27.869Z,72.86
2022-09-12T07:11:27.832Z,75.61
2022-09-12T07:12:27.787Z,72.76
2022-09-12T07:13:27.825Z,72.76
2022-09-12T07:14:27.877Z,73.50
2022-09-12T07:15:27.941Z,73.55
2022-09-12T07:16:27.859Z,74.24
2022-09-12T07:17:27.813Z,72.39
2022-09-12T07:18:27.787Z,73.36
2022-09-12T07:19:27.763Z,71.75
2022-09-12T07:20:27.767Z,71.78
2022-09-12T07:21:27.813Z,74.49
2022-09-12T07:22:27.706Z,74.09
2022-09-12T07:23:27.689Z,74.78
2022-09-12T07:24:27.708Z,76.25
2022-09-12T07:25:27.724Z,74.98
2022-09-12T07:26:27.717Z,71.98
2022-09-12T07:27:27.705Z,75.19
2022-09-12T07:28:27.647Z,72.56
2022-09-12T07:29:42.866Z,73.83
2022-09-12T07:30:29.765Z,73.43
2022-09-12T07:31:27.720Z,72.96
2022-09-12T07:32:27.612Z,74.53
2022-09-12T07:33:27.608Z,72.75
2022-09-12T07:34:27.563Z,72.51
2022-09-12T07:35:27.562Z,74.67
2022-09-12T07:36:27.575Z,75.98
2022-09-12T07:37:27.583Z,76.77
2022-09-12T07:38:27.626Z,75.67
2022-09-12T07:39:28.038Z,73.16
2022-09-12T07:40:27.575Z,69.73
2022-09-12T07:41:27.540Z,74.23
2022-09-12T07:42:27.691Z,71.86
2022-09-12T07:43:27.478Z,74.06
2022-09-12T07:44:27.519Z,76.03
2022-09-12T07:45:27.483Z,74.38
2022-09-12T07:46:27.527Z,74.67
2022-09-12T07:47:27.462Z,71.51
2022-09-12T07:48:28.511Z,72.66
2022-09-12T07:49:28.506Z,72.93
2022-09-12T07:50:27.467Z,71.73
2022-09-12T07:51:27.483Z,73.12
2022-09-12T07:52:27.399Z,74.92
2022-09-12T07:53:27.379Z,75.42
2022-09-12T07:54:27.387Z,70.86
2022-09-12T07:55:27.348Z,72.39
2022-09-12T07:56:30.528Z,71.38
2022-09-12T07:57:28.405Z,73.28
2022-09-12T07:58:27.392Z,72.76
2022-09-12T07:59:51.012Z,70.86
2022-09-12T08:00:29.286Z,73.10
2022-09-12T08:01:27.368Z,71.06
2022-09-12T08:02:27.383Z,73.67
2022-09-12T08:03:27.328Z,70.79
2022-09-12T08:04:27.277Z,73.57
2022-09-12T08:05:27.266Z,70.03
2022-09-12T08:06:27.235Z,73.01
2022-09-12T08:07:27.294Z,72.04
2022-09-12T08:08:27.207Z,71.66
2022-09-12T08:09:27.190Z,69.92
2022-09-12T08:10:27.282Z,72.11
2022-09-12T08:11:27.211Z,71.78
2022-09-12T08:12:27.204Z,72.69
2022-09-12T08:13:27.166Z,70.54
2022-09-12T08:14:27.196Z,72.90
2022-09-12T08:15:27.247Z,72.97
2022-09-12T08:16:27.109Z,72.52
2022-09-12T08:17:27.118Z,72.52
2022-09-12T08:18:27.119Z,73.15
2022-09-12T08:19:27.207Z,71.86
2022-09-12T08:20:28.528Z,76.15
2022-09-12T08:21:28.093Z,74.05
2022-09-12T08:22:27.956Z,71.89
2022-09-12T08:23:27.120Z,68.95
2022-09-12T08:24:27.045Z,67.27
2022-09-12T08:25:27.055Z,68.86
2022-09-12T08:26:27.038Z,70.85
2022-09-12T08:27:27.011Z,69.42
2022-09-12T08:28:27.024Z,72.15
2022-09-12T08:29:27.042Z,73.45
2022-09-12T08:30:27.000Z,71.80
2022-09-12T08:31:26.967Z,66.80
2022-09-12T08:32:27.053Z,67.63
2022-09-12T08:33:26.941Z,72.84
2022-09-12T08:34:27.087Z,72.96
2022-09-12T08:35:26.927Z,73.17
2022-09-12T08:36:26.985Z,73.41
2022-09-12T08:37:26.931Z,71.92
2022-09-12T08:38:26.891Z,72.21
2022-09-12T08:39:27.008Z,70.06
2022-09-12T08:40:26.871Z,68.43
2022-09-12T08:41:26.862Z,71.63
2022-09-12T08:42:26.836Z,73.08
2022-09-12T08:43:27.797Z,69.73
2022-09-12T08:44:26.822Z,69.86
2022-09-12T08:45:26.856Z,69.21
2022-09-12T08:46:27.574Z,71.93
2022-09-12T08:47:26.756Z,71.46
2022-09-12T08:48:26.784Z,71.92
2022-09-12T08:49:26.772Z,72.06
2022-09-12T08:50:26.728Z,70.15
2022-09-12T08:51:26.748Z,69.27
2022-09-12T08:52:26.708Z,72.90
2022-09-12T08:53:26.700Z,71.75
2022-09-12T08:54:26.728Z,72.04
2022-09-12T08:55:26.708Z,71.21
2022-09-12T08:56:31.476Z,71.50
2022-09-12T08:57:28.694Z,70.79
2022-09-12T08:58:26.653Z,74.04
2022-09-12T08:59:26.661Z,67.66
2022-09-12T09:00:26.633Z,71.02
2022-09-12T09:01:26.746Z,68.90
2022-09-12T09:02:26.667Z,73.11
2022-09-12T09:03:26.760Z,73.05
2022-09-12T09:04:28.782Z,73.68
2022-09-12T09:05:27.540Z,75.04
2022-09-12T09:06:26.569Z,74.00
2022-09-12T09:07:26.523Z,74.75
2022-09-12T09:08:26.577Z,76.14
2022-09-12T09:09:26.562Z,77.04
2022-09-12T09:10:26.484Z,75.31
2022-09-12T09:11:26.486Z,75.84
2022-09-12T09:12:26.530Z,74.62
2022-09-12T09:13:26.545Z,73.55
2022-09-12T09:14:26.534Z,72.57
2022-09-12T09:15:26.604Z,72.59
2022-09-12T09:16:26.569Z,73.42
2022-09-12T09:17:26.537Z,72.50
2022-09-12T09:18:26.459Z,73.06
2022-09-12T09:19:26.504Z,70.08
2022-09-12T09:20:28.715Z,69.96
2022-09-12T09:21:27.034Z,76.41
2022-09-12T09:22:26.830Z,74.88
2022-09-12T09:23:26.582Z,72.56
2022-09-12T09:24:26.330Z,71.16
2022-09-12T09:25:26.376Z,72.45
2022-09-12T09:26:26.351Z,73.53
2022-09-12T09:27:40.031Z,71.80
2022-09-12T09:28:28.383Z,70.92
2022-09-12T09:29:26.508Z,75.03
2022-09-12T09:30:26.261Z,73.58
2022-09-12T09:31:26.387Z,71.70
2022-09-12T09:32:26.271Z,72.72
2022-09-12T09:33:26.215Z,73.95
2022-09-12T09:34:26.231Z,71.73
2022-09-12T09:35:26.190Z,72.20
2022-09-12T09:36:26.214Z,74.52
2022-09-12T09:37:26.286Z,71.78
2022-09-12T09:38:26.199Z,72.88
2022-09-12T09:39:27.080Z,72.43
2022-09-12T09:40:26.183Z,72.10
2022-09-12T09:41:26.208Z,73.07
2022-09-12T09:42:26.192Z,70.92
2022-09-12T09:43:26.134Z,74.30
2022-09-12T09:44:26.151Z,71.88
2022-09-12T09:45:26.119Z,71.24
2022-09-12T09:46:26.122Z,73.66
2022-09-12T09:47:26.129Z,71.92
2022-09-12T09:48:26.124Z,71.84
2022-09-12T09:49:26.059Z,72.26
2022-09-12T09:50:26.792Z,72.67
2022-09-12T09:51:26.060Z,73.79
2022-09-12T09:52:26.056Z,72.34
2022-09-12T09:53:26.083Z,73.17
2022-09-12T09:54:26.039Z,71.67
2022-09-12T09:55:25.991Z,70.18
2022-09-12T09:56:26.043Z,72.77
2022-09-12T09:57:25.981Z,71.79
2022-09-12T09:58:25.988Z,73.82
2022-09-12T09:59:26.007Z,70.77
2022-09-12T10:00:25.935Z,70.37
2022-09-12T10:01:25.976Z,70.27
2022-09-12T10:02:26.022Z,69.77
2022-09-12T10:03:25.927Z,73.01
2022-09-12T10:04:25.960Z,71.89
2022-09-12T10:05:25.892Z,71.37
2022-09-12T10:06:25.942Z,72.26
2022-09-12T10:07:25.884Z,74.08
2022-09-12T10:08:26.013Z,70.76
2022-09-12T10:09:25.920Z,72.38
2022-09-12T10:10:25.857Z,72.25
2022-09-12T10:11:25.873Z,73.23
2022-09-12T10:12:25.881Z,73.29
2022-09-12T10:13:25.906Z,71.95
2022-09-12T10:14:25.765Z,72.13
2022-09-12T10:15:25.853Z,74.00
2022-09-12T10:16:26.830Z,69.84
2022-09-12T10:17:25.809Z,73.79
2022-09-12T10:18:25.962Z,72.76
2022-09-12T10:19:25.783Z,70.65
2022-09-12T10:20:25.781Z,70.38
2022-09-12T10:21:25.788Z,72.64
2022-09-12T10:22:25.715Z,74.14
2022-09-12T10:23:25.658Z,70.71
2022-09-12T10:24:25.645Z,73.34
2022-09-12T10:25:25.715Z,72.91
2022-09-12T10:26:25.856Z,74.85
2022-09-12T10:27:25.979Z,72.20
2022-09-12T10:28:25.670Z,73.19
2022-09-12T10:29:25.705Z,72.66
2022-09-12T10:30:25.704Z,73.54
2022-09-12T10:31:26.625Z,71.72
2022-09-12T10:32:30.466Z,71.54
2022-09-12T10:33:27.632Z,71.55
2022-09-12T10:34:25.619Z,70.87
2022-09-12T10:35:25.577Z,73.39
2022-09-12T10:36:26.428Z,72.32
2022-09-12T10:37:25.617Z,72.17
2022-09-12T10:38:25.563Z,71.78
2022-09-12T10:39:25.523Z,71.05
2022-09-12T10:40:25.737Z,73.03
2022-09-12T10:41:25.502Z,71.25
2022-09-12T10:42:25.498Z,73.62
2022-09-12T10:43:25.478Z,75.28
2022-09-12T10:44:25.526Z,70.61
2022-09-12T10:45:25.480Z,74.90
2022-09-12T10:46:25.550Z,70.64
2022-09-12T10:47:25.462Z,72.99
2022-09-12T10:48:25.415Z,69.65
2022-09-12T10:49:25.425Z,73.14
2022-09-12T10:50:25.479Z,69.92
2022-09-12T10:51:25.365Z,73.11
2022-09-12T10:52:26.247Z,70.87
2022-09-12T10:53:25.399Z,70.02
2022-09-12T10:54:25.363Z,71.22
2022-09-12T10:55:25.331Z,72.78
2022-09-12T10:56:25.411Z,70.54
2022-09-12T10:57:25.328Z,71.66
2022-09-12T10:58:25.276Z,74.03
2022-09-12T10:59:25.255Z,72.50
2022-09-12T11:00:25.307Z,71.08
2022-09-12T11:01:25.368Z,72.68
2022-09-12T11:02:25.402Z,71.54
2022-09-12T11:03:25.325Z,72.62
2022-09-12T11:04:26.048Z,74.75
2022-09-12T11:05:25.192Z,70.55
2022-09-12T11:06:25.284Z,73.21
2022-09-12T11:07:25.224Z,70.85
2022-09-12T11:08:25.208Z,72.26
2022-09-12T11:09:25.820Z,71.82
2022-09-12T11:10:25.183Z,71.51
2022-09-12T11:11:25.281Z,73.09
2022-09-12T11:12:25.140Z,71.08
2022-09-12T11:13:25.144Z,73.60
2022-09-12T11:14:25.113Z,72.18
2022-09-12T11:15:25.142Z,70.96
2022-09-12T11:16:25.133Z,73.98
2022-09-12T11:17:25.236Z,73.95
2022-09-12T11:18:25.212Z,72.46
2022-09-12T11:19:25.088Z,71.79
2022-09-12T11:20:25.056Z,72.11
2022-09-12T11:21:25.041Z,72.08
2022-09-12T11:22:27.698Z,74.18
2022-09-12T11:23:26.069Z,73.80
2022-09-12T11:24:25.037Z,71.05
2022-09-12T11:25:25.140Z,73.55
2022-09-12T11:26:24.996Z,74.22
2022-09-12T11:27:24.977Z,73.01
2022-09-12T11:28:24.972Z,72.02
2022-09-12T11:29:25.512Z,71.93
2022-09-12T11:30:24.964Z,73.05
2022-09-12T11:31:24.926Z,71.96
2022-09-12T11:32:24.949Z,73.54
2022-09-12T11:33:24.909Z,73.17
2022-09-12T11:34:24.873Z,73.81
2022-09-12T11:35:24.869Z,73.05
2022-09-12T11:36:24.873Z,73.76
2022-09-12T11:37:24.857Z,73.84
2022-09-12T11:38:24.963Z,70.44
2022-09-12T11:39:24.821Z,73.18
2022-09-12T11:40:24.968Z,73.83
2022-09-12T11:41:24.850Z,72.92
2022-09-12T11:42:24.863Z,71.99
2022-09-12T11:43:25.458Z,72.07
2022-09-12T11:44:24.754Z,70.60
2022-09-12T11:45:24.802Z,74.28
2022-09-12T11:46:24.857Z,71.43
2022-09-12T11:47:24.698Z,74.19
2022-09-12T11:48:24.718Z,72.53
2022-09-12T11:49:24.774Z,72.70
2022-09-12T11:50:24.746Z,73.35
2022-09-12T11:51:24.718Z,73.97
2022-09-12T11:52:24.712Z,73.61
2022-09-12T11:53:24.682Z,73.46
2022-09-12T11:54:25.554Z,72.09
2022-09-12T11:55:24.672Z,72.75
2022-09-12T11:56:24.678Z,73.06
2022-09-12T11:57:24.718Z,74.62
2022-09-12T11:58:24.642Z,73.38
2022-09-12T11:59:24.588Z,72.60
2022-09-12T12:00:24.570Z,72.74
2022-09-12T12:01:24.662Z,72.79
2022-09-12T12:02:24.675Z,73.77
2022-09-12T12:03:24.660Z,72.63
2022-09-12T12:04:24.574Z,72.12
2022-09-12T12:05:24.582Z,74.53
2022-09-12T12:06:24.623Z,74.21
2022-09-12T12:07:24.611Z,71.93
2022-09-12T12:08:25.443Z,73.60
2022-09-12T12:09:24.635Z,72.45
2022-09-12T12:10:24.744Z,74.29
2022-09-12T12:11:24.498Z,73.11
2022-09-12T12:12:24.503Z,71.05
2022-09-12T12:13:24.470Z,71.24
2022-09-12T12:14:24.469Z,74.12
2022-09-12T12:15:24.463Z,71.55
2022-09-12T12:16:24.573Z,72.10
2022-09-12T12:17:24.387Z,73.54
2022-09-12T12:18:24.552Z,72.43
2022-09-12T12:19:24.400Z,73.63
2022-09-12T12:20:24.334Z,74.16
2022-09-12T12:21:24.383Z,73.90
2022-09-12T12:22:24.380Z,72.84
2022-09-12T12:23:24.359Z,73.49
2022-09-12T12:24:24.924Z,72.84
2022-09-12T12:25:28.838Z,72.30
2022-09-12T12:26:26.363Z,71.47
2022-09-12T12:27:24.276Z,73.20
2022-09-12T12:28:24.399Z,72.15
2022-09-12T12:29:24.263Z,73.32
2022-09-12T12:30:24.273Z,73.31
2022-09-12T12:31:24.346Z,74.63
2022-09-12T12:32:24.308Z,73.59
2022-09-12T12:33:24.261Z,74.83
2022-09-12T12:34:25.299Z,73.93
2022-09-12T12:35:24.206Z,74.06
2022-09-12T12:36:24.267Z,75.08
2022-09-12T12:37:24.164Z,72.65
2022-09-12T12:38:24.215Z,74.12
2022-09-12T12:39:24.167Z,73.10
2022-09-12T12:40:24.194Z,75.45
2022-09-12T12:41:24.132Z,72.38
2022-09-12T12:42:24.120Z,73.29
2022-09-12T12:43:25.248Z,73.89
2022-09-12T12:44:24.177Z,74.70
2022-09-12T12:45:24.156Z,74.17
2022-09-12T12:46:24.187Z,73.74
2022-09-12T12:47:24.344Z,73.05
2022-09-12T12:48:24.088Z,74.59
2022-09-12T12:49:24.013Z,75.79
2022-09-12T12:50:24.948Z,74.65
2022-09-12T12:51:24.162Z,75.09
2022-09-12T12:52:24.010Z,74.18